Time;durP1;ratioP1;P1;durP2;ratioP2;P2;SDS_P1;SDS_P2;PMS_P1;PMS_P2;Temp;Humidity;BMP_temperature;BMP_pressure;BME280_temperature;BME280_humidity;BME280_pressure;Samples;Min_cycle;Max_cycle;Signal;HPM_P1;HPM_P2
2021/09/18 00:01:45;;;;;;;4.78;3.65;;;;;;;12.86;94.77;97906.34;4960859;28;20137;-60
2021/09/18 00:04:10;;;;;;;6.70;4.50;;;;;;;13.08;93.16;97910.47;4961857;28;20029;-60
2021/09/18 00:06:36;;;;;;;6.20;4.47;;;;;;;13.19;92.29;97909.91;4961542;28;20043;-59
2021/09/18 00:09:02;;;;;;;5.05;3.88;;;;;;;13.42;92.65;97906.09;4961869;28;20031;-63
2021/09/18 00:11:28;;;;;;;7.03;5.10;;;;;;;12.89;93.74;97903.59;4960917;28;20589;-59
2021/09/18 00:13:53;;;;;;;8.27;5.00;;;;;;;13.12;93.14;97909.38;4960697;28;20027;-59
2021/09/18 00:16:19;;;;;;;7.75;5.55;;;;;;;12.36;96.52;97898.47;4961213;28;20101;-60
2021/09/18 00:18:44;;;;;;;8.95;5.18;;;;;;;12.72;95.17;97896.59;4958319;28;20363;-60
2021/09/18 00:21:10;;;;;;;6.45;4.43;;;;;;;12.90;95.49;97900.06;4961677;28;20066;-62
2021/09/18 00:23:35;;;;;;;9.02;4.82;;;;;;;12.77;93.73;97901.59;4964143;28;20038;-59
2021/09/18 00:26:01;;;;;;;6.55;3.95;;;;;;;12.11;96.76;97908.38;4962679;28;20550;-62
2021/09/18 00:28:26;;;;;;;5.45;3.85;;;;;;;12.42;96.15;97899.00;4961748;28;20125;-60
2021/09/18 00:30:52;;;;;;;7.38;3.80;;;;;;;12.58;94.73;97893.00;4960600;28;20043;-61
2021/09/18 00:33:17;;;;;;;5.28;3.80;;;;;;;12.73;94.38;97900.06;4961347;28;20026;-63
2021/09/18 00:35:42;;;;;;;6.85;4.88;;;;;;;13.22;92.48;97904.53;4960890;28;20063;-61
2021/09/18 00:38:08;;;;;;;6.47;4.60;;;;;;;12.64;91.90;97895.31;4962026;28;20022;-61
2021/09/18 00:40:33;;;;;;;7.10;4.40;;;;;;;12.48;95.14;97892.59;4963515;28;20038;-60
2021/09/18 00:42:59;;;;;;;8.00;4.80;;;;;;;12.86;93.12;97903.72;4963888;28;20045;-60
2021/09/18 00:45:24;;;;;;;5.65;4.22;;;;;;;13.23;91.21;97907.06;4963275;28;20030;-62
2021/09/18 00:47:49;;;;;;;6.53;4.93;;;;;;;12.54;94.56;97916.69;4963705;28;20044;-62
2021/09/18 00:50:15;;;;;;;7.32;4.60;;;;;;;11.98;98.41;97915.09;4962651;28;20035;-60
2021/09/18 00:52:40;;;;;;;12.68;4.55;;;;;;;12.29;96.93;97916.22;4963644;28;20111;-61
2021/09/18 00:55:07;;;;;;;6.40;4.63;;;;;;;12.38;95.51;97918.38;4962910;28;20026;-62
2021/09/18 00:57:32;;;;;;;5.05;3.63;;;;;;;13.63;94.35;97911.94;4963903;28;20019;-62
2021/09/18 01:00:02;;;;;;;5.65;4.30;;;;;;;13.37;91.06;97908.13;4963521;28;20034;-61
2021/09/18 01:02:28;;;;;;;6.57;3.95;;;;;;;13.29;91.38;97913.75;4963515;28;20046;-61
2021/09/18 01:04:53;;;;;;;5.82;4.35;;;;;;;12.67;93.14;97909.06;4961919;28;20095;-58
2021/09/18 01:07:19;;;;;;;10.05;4.72;;;;;;;12.26;97.03;97913.75;4960320;28;20043;-63
2021/09/18 01:09:46;;;;;;;7.05;4.60;;;;;;;12.64;94.83;97908.38;4961690;28;20031;-60
2021/09/18 01:12:11;;;;;;;7.38;4.63;;;;;;;12.88;93.71;97906.28;4962907;28;20027;-61
2021/09/18 01:14:42;;;;;;;8.13;4.65;;;;;;;12.89;93.47;97907.97;4962458;28;20783;-63
2021/09/18 01:17:08;;;;;;;6.50;4.13;;;;;;;13.40;91.14;97907.94;4962995;28;20035;-60
2021/09/18 01:19:33;;;;;;;9.18;5.60;;;;;;;12.94;92.95;97905.97;4963041;28;20034;-61
2021/09/18 01:22:00;;;;;;;8.48;5.28;;;;;;;12.75;94.28;97911.28;4963043;28;20041;-59
2021/09/18 01:24:25;;;;;;;9.10;5.18;;;;;;;13.15;92.95;97911.84;4963149;28;20682;-62
2021/09/18 01:26:50;;;;;;;6.68;4.82;;;;;;;13.46;91.54;97912.88;4961632;28;20130;-61
2021/09/18 01:29:16;;;;;;;7.57;4.90;;;;;;;13.33;92.04;97906.59;4963305;28;20616;-62
2021/09/18 01:31:45;;;;;;;5.40;4.03;;;;;;;13.55;91.18;97909.75;4962103;28;20047;-62
2021/09/18 01:34:16;;;;;;;10.25;4.68;;;;;;;12.28;97.35;97906.69;4963121;28;20050;-59
2021/09/18 01:36:42;;;;;;;5.63;4.20;;;;;;;12.43;97.37;97911.16;4962530;28;20513;-61
2021/09/18 01:39:12;;;;;;;6.95;4.00;;;;;;;13.18;92.45;97909.06;4962959;28;20627;-60
2021/09/18 01:41:38;;;;;;;7.20;4.10;;;;;;;12.64;94.20;97918.84;4962015;28;20055;-60
2021/09/18 01:44:03;;;;;;;9.30;5.15;;;;;;;12.59;94.31;97913.88;4962316;28;20030;-62
2021/09/18 01:46:29;;;;;;;8.02;4.40;;;;;;;13.07;92.50;97911.41;4962143;28;20050;-61
2021/09/18 01:48:55;;;;;;;9.27;4.40;;;;;;;13.02;92.99;97913.41;4961790;28;20520;-59
2021/09/18 01:51:21;;;;;;;5.60;3.85;;;;;;;13.30;92.21;97907.56;4962038;28;20038;-59
2021/09/18 01:53:46;;;;;;;6.90;3.97;;;;;;;13.19;92.83;97905.50;4962799;28;20038;-62
2021/09/18 01:56:12;;;;;;;7.43;4.65;;;;;;;12.44;96.87;97909.38;4962044;28;20027;-63
2021/09/18 01:58:37;;;;;;;6.38;4.63;;;;;;;12.56;96.91;97905.31;4962622;28;20036;-59
2021/09/18 02:01:03;;;;;;;8.32;4.70;;;;;;;13.04;94.27;97907.16;4961947;28;20487;-59
2021/09/18 02:03:30;;;;;;;7.35;4.75;;;;;;;13.01;93.35;97907.34;4961650;28;20479;-60
2021/09/18 02:05:56;;;;;;;8.77;4.60;;;;;;;12.96;95.25;97911.09;4961326;28;20066;-60
2021/09/18 02:08:22;;;;;;;6.53;4.10;;;;;;;13.22;92.70;97900.13;4959343;28;20062;-62
2021/09/18 02:10:49;;;;;;;6.30;4.47;;;;;;;13.19;93.39;97900.28;4961628;28;20049;-61
2021/09/18 02:13:14;;;;;;;8.88;4.47;;;;;;;13.10;94.28;97900.75;4951428;28;20038;-62
2021/09/18 02:15:40;;;;;;;6.70;4.18;;;;;;;13.43;92.80;97903.38;4960563;28;20067;-62
2021/09/18 02:18:06;;;;;;;11.10;4.50;;;;;;;12.95;94.64;97901.56;4962361;28;20045;-61
2021/09/18 02:20:33;;;;;;;7.50;4.20;;;;;;;13.49;92.12;97902.19;4960826;28;20377;-63
2021/09/18 02:22:58;;;;;;;5.18;3.63;;;;;;;13.74;91.58;97901.72;4961799;28;20026;-60
2021/09/18 02:25:25;;;;;;;6.38;4.40;;;;;;;13.67;91.39;97889.88;4961625;28;20046;-63
2021/09/18 02:27:51;;;;;;;5.63;4.00;;;;;;;13.74;90.46;97887.75;4961510;28;20129;-59
2021/09/18 02:30:22;;;;;;;6.57;4.60;;;;;;;13.30;93.21;97891.84;4943782;28;20100;-62
2021/09/18 02:32:47;;;;;;;7.40;4.68;;;;;;;12.47;99.28;97890.94;4962200;28;20034;-61
2021/09/18 02:35:15;;;;;;;7.88;4.60;;;;;;;13.05;97.45;97887.94;4961771;28;20023;-61
2021/09/18 02:37:42;;;;;;;6.80;4.78;;;;;;;13.22;94.58;97894.88;4962201;28;20035;-62
2021/09/18 02:40:09;;;;;;;7.07;4.20;;;;;;;13.29;94.58;97890.16;4943804;28;20697;-62
2021/09/18 02:42:38;;;;;;;10.23;5.13;;;;;;;12.74;98.02;97888.69;4950503;28;20630;-60
2021/09/18 02:45:06;;;;;;;6.32;4.80;;;;;;;12.95;96.98;97883.25;4961888;28;20508;-62
2021/09/18 02:47:32;;;;;;;7.88;4.45;;;;;;;13.16;96.44;97895.22;4960801;28;20038;-62
2021/09/18 02:49:57;;;;;;;7.95;4.50;;;;;;;13.09;95.95;97886.00;4961331;28;20077;-62
2021/09/18 02:52:22;;;;;;;6.20;4.30;;;;;;;13.32;94.93;97884.78;4944209;28;20146;-63
2021/09/18 02:54:48;;;;;;;8.20;4.82;;;;;;;13.29;94.81;97884.94;4961912;28;20037;-61
2021/09/18 02:57:13;;;;;;;7.53;4.50;;;;;;;13.37;94.57;97879.31;4961674;28;20401;-62
2021/09/18 02:59:39;;;;;;;7.22;4.85;;;;;;;13.29;95.19;97872.66;4960968;28;20042;-62
2021/09/18 03:02:04;;;;;;;7.57;4.60;;;;;;;13.44;94.50;97875.44;4959854;28;20050;-62
2021/09/18 03:04:31;;;;;;;7.03;3.92;;;;;;;13.38;95.31;97879.22;4960993;28;20027;-60
2021/09/18 03:06:56;;;;;;;6.03;3.78;;;;;;;13.72;93.32;97877.34;4961274;28;20134;-60
2021/09/18 03:09:21;;;;;;;11.57;4.53;;;;;;;13.57;93.01;97872.97;4961348;28;20381;-62
2021/09/18 03:11:47;;;;;;;7.35;4.30;;;;;;;13.52;94.74;97867.97;4961180;28;20661;-61
2021/09/18 03:14:12;;;;;;;8.63;4.00;;;;;;;13.28;94.74;97870.13;4961531;28;20026;-60
2021/09/18 03:16:37;;;;;;;5.70;4.03;;;;;;;13.63;93.40;97868.22;4960724;28;20034;-61
2021/09/18 03:19:03;;;;;;;7.47;4.35;;;;;;;13.50;93.01;97872.47;4961245;28;20091;-62
2021/09/18 03:21:28;;;;;;;6.65;4.40;;;;;;;13.86;91.51;97866.13;4960642;28;20035;-62
2021/09/18 03:23:53;;;;;;;5.97;3.88;;;;;;;13.65;92.92;97874.22;4961465;28;20507;-63
2021/09/18 03:26:19;;;;;;;7.00;5.43;;;;;;;12.92;96.13;97877.25;4960824;28;20050;-62
2021/09/18 03:28:44;;;;;;;7.82;4.20;;;;;;;13.32;96.70;97873.47;4960751;28;20062;-60
2021/09/18 03:31:09;;;;;;;6.20;4.45;;;;;;;13.56;94.14;97866.88;4944613;28;20039;-60
2021/09/18 03:33:35;;;;;;;5.22;3.88;;;;;;;13.64;93.14;97871.72;4961717;28;20031;-62
2021/09/18 03:36:00;;;;;;;6.18;4.50;;;;;;;12.82;95.62;97860.31;4960562;28;20027;-61
2021/09/18 03:38:25;;;;;;;7.40;4.28;;;;;;;13.03;95.40;97867.97;4961050;28;20033;-60
2021/09/18 03:40:51;;;;;;;6.55;4.00;;;;;;;13.00;95.53;97868.16;4943886;28;20039;-62
2021/09/18 03:43:16;;;;;;;5.88;4.45;;;;;;;13.16;93.92;97868.16;4960958;28;20029;-60
2021/09/18 03:45:41;;;;;;;6.78;3.90;;;;;;;13.20;93.63;97870.56;4960736;28;20056;-62
2021/09/18 03:48:07;;;;;;;6.68;4.53;;;;;;;13.00;93.99;97868.16;4961552;28;20026;-60
2021/09/18 03:50:33;;;;;;;5.82;4.45;;;;;;;12.68;95.56;97863.69;4959128;28;20047;-61
2021/09/18 03:52:58;;;;;;;8.07;4.53;;;;;;;12.63;96.63;97860.44;4961666;28;20042;-61
2021/09/18 03:55:23;;;;;;;8.68;4.35;;;;;;;12.72;95.68;97853.91;4959867;28;20031;-61
2021/09/18 03:57:49;;;;;;;6.78;4.47;;;;;;;12.77;95.38;97856.25;4944963;28;20023;-61
2021/09/18 04:00:14;;;;;;;7.20;4.00;;;;;;;12.63;95.82;97862.22;4959965;28;20840;-60
2021/09/18 04:02:40;;;;;;;10.90;4.97;;;;;;;12.49;95.82;97861.13;4960257;28;20429;-60
2021/09/18 04:05:06;;;;;;;6.90;4.90;;;;;;;12.58;94.70;97862.44;4959799;28;20026;-61
2021/09/18 04:07:31;;;;;;;8.95;5.28;;;;;;;12.30;96.30;97863.00;4960729;28;20913;-62
2021/09/18 04:09:57;;;;;;;8.40;5.25;;;;;;;12.45;95.58;97867.47;4960823;28;20110;-63
2021/09/18 04:12:22;;;;;;;7.22;4.95;;;;;;;12.45;96.11;97867.47;4959713;28;20043;-62
2021/09/18 04:14:48;;;;;;;10.73;5.43;;;;;;;12.27;96.09;97863.16;4948419;28;20026;-61
2021/09/18 04:17:13;;;;;;;6.95;5.00;;;;;;;12.41;95.92;97867.72;4963017;28;20523;-61
2021/09/18 04:19:39;;;;;;;8.88;5.53;;;;;;;12.09;96.34;97873.63;4947976;28;20579;-61
2021/09/18 04:22:05;;;;;;;6.40;4.80;;;;;;;12.24;97.35;97873.75;4963950;28;20042;-62
2021/09/18 04:24:30;;;;;;;9.65;5.47;;;;;;;12.05;96.79;97879.06;4964207;28;20035;-61
2021/09/18 04:26:56;;;;;;;7.22;4.72;;;;;;;11.84;97.81;97880.94;4962786;28;20568;-61
2021/09/18 04:29:21;;;;;;;7.22;4.82;;;;;;;11.75;97.83;97882.22;4964053;28;20027;-62
2021/09/18 04:31:47;;;;;;;7.85;4.45;;;;;;;11.69;99.36;97887.69;4963695;28;20035;-62
2021/09/18 04:34:12;;;;;;;6.85;5.20;;;;;;;11.64;99.01;97885.31;4964854;28;20077;-63
2021/09/18 04:36:37;;;;;;;6.72;5.30;;;;;;;11.56;98.91;97892.66;4964025;28;20035;-62
2021/09/18 04:39:03;;;;;;;9.68;5.13;;;;;;;11.77;98.05;97891.66;4965388;28;20026;-62
2021/09/18 04:41:29;;;;;;;9.23;4.70;;;;;;;12.00;96.19;97883.66;4939934;28;20551;-60
2021/09/18 04:43:54;;;;;;;6.60;4.55;;;;;;;12.49;92.75;97895.16;4965996;28;20575;-60
2021/09/18 04:46:20;;;;;;;10.45;4.80;;;;;;;12.06;94.65;97886.84;4962704;28;20039;-63
2021/09/18 04:48:46;;;;;;;9.75;4.60;;;;;;;12.13;93.58;97898.69;4965231;28;20037;-60
2021/09/18 04:51:14;;;;;;;8.07;4.53;;;;;;;11.80;96.59;97890.69;4964267;28;20035;-61
2021/09/18 04:53:39;;;;;;;7.45;4.88;;;;;;;11.69;96.21;97888.56;4964106;28;20035;-60
2021/09/18 04:56:05;;;;;;;6.05;4.40;;;;;;;12.20;95.54;97888.75;4965077;28;20098;-61
2021/09/18 04:58:30;;;;;;;7.93;5.00;;;;;;;11.92;96.20;97889.25;4965336;28;20107;-62
2021/09/18 05:00:56;;;;;;;6.35;4.80;;;;;;;11.94;95.04;97888.25;4964698;28;20042;-62
2021/09/18 05:03:22;;;;;;;7.20;4.50;;;;;;;12.13;94.77;97896.06;4963709;28;20019;-60
2021/09/18 05:05:48;;;;;;;10.90;5.50;;;;;;;12.06;93.82;97897.28;4963891;28;20073;-61
2021/09/18 05:08:13;;;;;;;5.22;4.03;;;;;;;12.43;93.56;97894.63;4965291;28;20041;-60
2021/09/18 05:10:39;;;;;;;10.73;4.85;;;;;;;12.07;94.00;97893.75;4964120;28;20639;-61
2021/09/18 05:13:04;;;;;;;7.55;4.82;;;;;;;11.89;94.78;97905.91;4965143;28;20044;-59
2021/09/18 05:15:30;;;;;;;9.00;5.00;;;;;;;11.56;97.42;97898.75;4964465;28;20523;-63
2021/09/18 05:17:55;;;;;;;9.13;5.03;;;;;;;11.87;94.70;97902.53;4964833;28;20149;-63
2021/09/18 05:20:23;;;;;;;9.30;4.40;;;;;;;12.03;95.74;97902.66;4963707;28;20018;-62
2021/09/18 05:22:49;;;;;;;8.38;4.90;;;;;;;11.97;94.04;97902.97;4964968;28;20037;-62
2021/09/18 05:25:14;;;;;;;7.68;4.78;;;;;;;11.89;96.54;97905.06;4963593;28;20053;-63
2021/09/18 05:27:40;;;;;;;9.60;5.75;;;;;;;11.68;96.42;97910.38;4964563;28;20050;-61
2021/09/18 05:30:07;;;;;;;6.82;4.78;;;;;;;11.87;96.52;97906.88;4964281;28;20453;-62
2021/09/18 05:32:33;;;;;;;7.45;4.90;;;;;;;11.83;95.22;97913.19;4963765;28;20436;-61
2021/09/18 05:34:58;;;;;;;6.10;4.45;;;;;;;12.04;94.54;97906.97;4963027;28;20541;-60
2021/09/18 05:37:23;;;;;;;10.38;4.88;;;;;;;12.32;92.96;97903.84;4962997;28;20078;-61
2021/09/18 05:39:49;;;;;;;6.95;4.60;;;;;;;12.53;90.67;97901.94;4961955;28;20030;-60
2021/09/18 05:42:15;;;;;;;6.40;4.85;;;;;;;11.55;96.54;97915.31;4963004;28;20042;-62
2021/09/18 05:44:40;;;;;;;8.88;4.72;;;;;;;11.50;97.43;97924.28;4962920;28;20034;-60
2021/09/18 05:47:06;;;;;;;8.43;4.53;;;;;;;11.94;95.21;97931.84;4962517;28;20030;-60
2021/09/18 05:49:32;;;;;;;5.68;4.20;;;;;;;12.39;93.50;97927.94;4962833;28;20105;-61
2021/09/18 05:51:58;;;;;;;6.63;4.20;;;;;;;12.64;90.84;97921.47;4962286;28;20121;-61
2021/09/18 05:54:24;;;;;;;7.75;4.60;;;;;;;12.49;91.62;97926.53;4963024;28;20027;-61
2021/09/18 05:56:52;;;;;;;7.05;3.42;;;;;;;13.53;90.16;97929.94;4962654;28;20038;-62
2021/09/18 05:59:17;;;;;;;9.18;4.22;;;;;;;13.05;89.76;97928.94;4961640;28;20059;-61
2021/09/18 06:01:42;;;;;;;5.82;4.50;;;;;;;12.69;91.56;97927.31;4962056;28;20055;-63
2021/09/18 06:04:08;;;;;;;18.63;10.27;;;;;;;12.66;91.68;97922.22;4945510;28;20030;-63
2021/09/18 06:06:33;;;;;;;14.73;7.88;;;;;;;12.96;91.85;97921.56;4962391;28;20131;-61
2021/09/18 06:08:58;;;;;;;7.55;4.57;;;;;;;14.06;86.74;97918.28;4962322;28;20027;-63
2021/09/18 06:11:24;;;;;;;9.60;5.50;;;;;;;14.14;84.74;97919.63;4960779;28;20437;-60
2021/09/18 06:13:49;;;;;;;8.63;5.25;;;;;;;13.42;88.62;97927.06;4962813;28;20373;-63
2021/09/18 06:16:17;;;;;;;6.05;4.40;;;;;;;13.80;87.11;97911.00;4961907;28;20031;-60
2021/09/18 06:18:43;;;;;;;6.30;4.05;;;;;;;14.16;86.08;97923.00;4962092;28;20030;-63
2021/09/18 06:21:08;;;;;;;7.40;4.90;;;;;;;13.84;87.86;97923.00;4961419;28;20102;-61
2021/09/18 06:23:37;;;;;;;8.10;5.40;;;;;;;13.67;89.85;97937.03;4961606;28;20025;-61
2021/09/18 06:26:05;;;;;;;9.65;5.90;;;;;;;13.45;90.27;97929.50;4961957;28;20396;-62
2021/09/18 06:28:31;;;;;;;8.00;5.18;;;;;;;13.24;91.79;97929.69;4961768;28;20030;-61
2021/09/18 06:30:56;;;;;;;8.77;5.43;;;;;;;13.23;92.68;97932.38;4961197;28;20041;-63
2021/09/18 06:33:22;;;;;;;7.82;5.10;;;;;;;14.10;88.29;97939.94;4944137;28;20022;-63
2021/09/18 06:35:47;;;;;;;7.10;4.97;;;;;;;14.31;87.11;97932.59;4961973;28;20043;-60
2021/09/18 06:38:14;;;;;;;8.05;5.35;;;;;;;14.11;87.93;97938.13;4962148;28;20030;-62
2021/09/18 06:40:40;;;;;;;6.32;4.63;;;;;;;14.62;86.59;97936.94;4961652;28;20492;-62
2021/09/18 06:43:06;;;;;;;9.98;5.50;;;;;;;14.22;87.78;97933.13;4961375;28;20038;-62
2021/09/18 06:45:31;;;;;;;8.02;5.60;;;;;;;14.15;88.27;97937.91;4961574;28;20447;-59
2021/09/18 06:47:57;;;;;;;9.20;5.22;;;;;;;15.06;84.70;97935.25;4962121;28;20027;-60
2021/09/18 06:50:22;;;;;;;10.85;5.22;;;;;;;14.75;84.88;97941.50;4961044;28;20038;-61
2021/09/18 06:52:50;;;;;;;7.72;5.38;;;;;;;14.64;84.86;97940.31;4945049;28;20029;-63
2021/09/18 06:55:15;;;;;;;6.97;5.10;;;;;;;16.52;80.24;97941.00;4961041;28;20025;-63
2021/09/18 06:57:43;;;;;;;8.50;5.00;;;;;;;18.52;73.30;97939.41;4962276;28;20019;-63
2021/09/18 07:00:09;;;;;;;8.63;5.60;;;;;;;19.87;67.65;97936.13;4960996;28;20030;-61
2021/09/18 07:02:35;;;;;;;6.13;4.60;;;;;;;20.92;63.19;97923.97;4961983;28;20105;-61
2021/09/18 07:05:00;;;;;;;8.60;5.20;;;;;;;20.34;63.67;97920.84;4961187;28;20034;-61
2021/09/18 07:07:29;;;;;;;5.78;4.70;;;;;;;21.30;60.76;97935.78;4961495;28;20045;-62
2021/09/18 07:09:59;;;;;;;11.05;4.88;;;;;;;20.92;61.56;97931.09;4961308;28;20057;-63
2021/09/18 07:12:24;;;;;;;9.55;5.05;;;;;;;21.82;58.26;97935.72;4961097;28;20428;-62
2021/09/18 07:14:52;;;;;;;7.68;5.80;;;;;;;23.53;54.10;97936.09;4961513;28;20023;-63
2021/09/18 07:17:18;;;;;;;8.80;6.05;;;;;;;24.75;51.01;97935.75;4944331;28;20038;-62
2021/09/18 07:19:43;;;;;;;8.60;4.88;;;;;;;23.33;54.55;97932.66;4961419;28;20031;-63
2021/09/18 07:22:11;;;;;;;8.15;5.30;;;;;;;24.05;50.87;97931.06;4960485;28;20582;-63
2021/09/18 07:24:36;;;;;;;7.60;5.55;;;;;;;23.34;51.77;97936.97;4961046;28;20034;-62
2021/09/18 07:27:01;;;;;;;11.40;6.00;;;;;;;22.46;54.35;97934.44;4961304;28;20078;-61
2021/09/18 07:29:27;;;;;;;9.00;6.10;;;;;;;23.68;51.58;97937.28;4961445;28;20113;-61
2021/09/18 07:31:54;;;;;;;10.15;6.18;;;;;;;23.45;52.01;97935.97;4961003;28;20069;-61
2021/09/18 07:34:20;;;;;;;8.90;6.13;;;;;;;25.07;49.34;97934.34;4961341;28;20496;-63
2021/09/18 07:36:46;;;;;;;7.47;6.10;;;;;;;25.44;49.28;97929.75;4961142;28;20039;-63
2021/09/18 07:39:11;;;;;;;8.15;6.28;;;;;;;25.36;48.82;97935.88;4960830;28;20104;-61
2021/09/18 07:41:36;;;;;;;7.07;5.55;;;;;;;26.69;45.77;97931.66;4959076;28;20090;-62
2021/09/18 07:44:02;;;;;;;9.52;6.28;;;;;;;25.30;48.54;97939.19;4944405;28;20487;-63
2021/09/18 07:46:28;;;;;;;8.38;6.25;;;;;;;24.98;48.63;97940.63;4943721;28;20047;-63
2021/09/18 07:48:55;;;;;;;10.88;6.57;;;;;;;23.39;52.14;97941.88;4946971;28;20031;-64
2021/09/18 07:51:20;;;;;;;9.63;7.35;;;;;;;22.86;52.67;97945.88;4964183;28;20590;-63
2021/09/18 07:53:46;;;;;;;10.70;7.50;;;;;;;23.61;50.75;97944.16;4965588;28;20031;-63
2021/09/18 07:56:11;;;;;;;9.98;6.85;;;;;;;24.90;48.99;97935.22;4964288;28;20377;-61
2021/09/18 07:58:37;;;;;;;11.05;7.45;;;;;;;24.40;50.46;97942.75;4964020;28;20031;-61
2021/09/18 08:01:03;;;;;;;9.23;7.03;;;;;;;24.65;50.11;97939.50;4964145;28;20039;-62
2021/09/18 08:03:28;;;;;;;8.65;6.75;;;;;;;24.80;50.85;97936.16;4963268;28;20038;-62
2021/09/18 08:05:57;;;;;;;8.32;6.80;;;;;;;25.17;47.84;97937.75;4963265;28;20043;-60
2021/09/18 08:08:22;;;;;;;9.90;7.40;;;;;;;24.31;49.46;97945.50;4946933;28;20033;-60
2021/09/18 08:10:47;;;;;;;7.93;6.45;;;;;;;23.16;52.94;97941.38;4964538;28;20047;-60
2021/09/18 08:13:12;;;;;;;8.70;7.00;;;;;;;24.24;50.24;97943.44;4947301;28;20038;-63
2021/09/18 08:15:38;;;;;;;10.30;6.78;;;;;;;25.08;48.29;97946.69;4964636;28;20042;-61
2021/09/18 08:18:03;;;;;;;10.15;7.20;;;;;;;23.48;51.40;97941.00;4964245;28;20050;-62
2021/09/18 08:20:29;;;;;;;9.25;6.20;;;;;;;25.04;48.64;97940.00;4964061;28;20049;-61
2021/09/18 08:22:54;;;;;;;9.65;6.60;;;;;;;26.19;46.67;97939.75;4963996;28;20026;-61
2021/09/18 08:25:23;;;;;;;9.18;6.50;;;;;;;25.50;48.50;97939.81;4964348;28;20031;-60
2021/09/18 08:27:48;;;;;;;8.68;6.70;;;;;;;24.44;49.96;97938.81;4964094;28;20042;-60
2021/09/18 08:30:14;;;;;;;7.43;5.82;;;;;;;25.76;46.88;97942.41;4962920;28;20024;-63
2021/09/18 08:32:40;;;;;;;9.18;5.85;;;;;;;27.59;44.59;97948.59;4964413;28;20651;-62
2021/09/18 08:35:06;;;;;;;9.60;6.65;;;;;;;25.62;47.20;97943.03;4946932;28;20114;-60
2021/09/18 08:37:32;;;;;;;9.15;6.50;;;;;;;25.47;48.03;97940.13;4964438;28;20062;-62
2021/09/18 08:39:57;;;;;;;8.45;6.47;;;;;;;27.68;44.27;97937.72;4963371;28;20030;-61
2021/09/18 08:42:23;;;;;;;7.10;5.95;;;;;;;26.05;47.25;97939.38;4963308;28;20133;-62
2021/09/18 08:44:49;;;;;;;9.48;6.47;;;;;;;26.85;44.76;97940.69;4964046;28;20041;-61
2021/09/18 08:47:14;;;;;;;9.90;6.47;;;;;;;25.61;48.15;97936.03;4964005;28;20097;-63
2021/09/18 08:49:41;;;;;;;8.07;6.30;;;;;;;27.86;43.45;97934.78;4963748;28;20145;-60
2021/09/18 08:52:06;;;;;;;12.38;5.72;;;;;;;25.83;47.14;97927.44;4964046;28;20085;-61
2021/09/18 08:54:33;;;;;;;7.60;5.70;;;;;;;26.42;46.69;97934.63;4964071;28;20026;-63
2021/09/18 08:56:58;;;;;;;6.70;5.38;;;;;;;26.07;46.18;97929.38;4962562;28;20065;-61
2021/09/18 08:59:24;;;;;;;8.73;5.82;;;;;;;27.19;45.46;97931.63;4946718;28;20081;-61
2021/09/18 09:02:17;;;;;;;8.55;6.10;;;;;;;26.87;45.18;97923.47;4963513;28;20118;-62
2021/09/18 09:04:44;;;;;;;13.13;6.70;;;;;;;26.25;47.33;97929.25;4958829;28;20177;-60
2021/09/18 09:07:17;;;;;;;8.25;6.18;;;;;;;25.67;48.21;97932.69;4946137;28;20045;-60
2021/09/18 09:09:57;;;;;;;8.35;6.07;;;;;;;24.65;50.41;97928.84;4963277;28;20554;-62
2021/09/18 09:12:27;;;;;;;10.43;7.40;;;;;;;25.29;49.44;97930.34;4962650;28;20104;-62
2021/09/18 09:14:52;;;;;;;11.45;7.47;;;;;;;22.84;53.91;97931.91;4962330;28;20033;-64
2021/09/18 09:17:29;;;;;;;10.75;6.85;;;;;;;24.15;52.41;97927.50;4963524;28;20035;-63
2021/09/18 09:19:55;;;;;;;10.85;6.78;;;;;;;22.67;56.39;97930.81;4963278;28;20027;-63
2021/09/18 09:22:40;;;;;;;7.57;5.80;;;;;;;22.95;55.08;97925.59;4962455;28;20053;-62
2021/09/18 09:25:23;;;;;;;13.98;9.32;;;;;;;23.26;54.14;97926.25;4963172;28;20027;-59
2021/09/18 09:27:48;;;;;;;10.90;8.20;;;;;;;24.64;51.53;97922.69;4963174;28;20046;-62
2021/09/18 09:30:29;;;;;;;14.20;9.73;;;;;;;23.24;53.31;97923.72;4961914;28;20094;-62
2021/09/18 09:32:54;;;;;;;13.25;9.70;;;;;;;24.28;53.41;97922.66;4963368;28;20113;-60
2021/09/18 09:35:21;;;;;;;11.13;7.90;;;;;;;24.04;53.73;97926.75;4962651;28;20380;-63
2021/09/18 09:37:57;;;;;;;13.40;9.38;;;;;;;23.50;54.08;97925.72;4963235;28;20050;-62
2021/09/18 09:40:52;;;;;;;11.38;8.27;;;;;;;23.08;56.43;97924.31;4961662;28;20125;-62
2021/09/18 09:43:19;;;;;;;13.32;9.85;;;;;;;22.95;55.34;97928.25;4946161;28;20054;-62
2021/09/18 09:45:46;;;;;;;19.58;12.10;;;;;;;22.02;57.17;97928.63;4961685;28;20047;-61
2021/09/18 09:48:12;;;;;;;14.50;10.60;;;;;;;23.24;55.05;97918.41;4962248;28;20034;-61
2021/09/18 09:50:40;;;;;;;11.57;8.18;;;;;;;23.93;53.45;97918.97;4945978;28;20528;-63
2021/09/18 09:53:27;;;;;;;17.90;11.57;;;;;;;23.01;55.25;97920.53;4963113;28;20027;-63
2021/09/18 09:55:53;;;;;;;15.38;11.98;;;;;;;22.23;57.46;97922.38;4961188;28;20043;-63
2021/09/18 09:58:19;;;;;;;11.43;8.25;;;;;;;22.35;57.96;97917.78;4960895;28;20381;-60
2021/09/18 10:00:49;;;;;;;17.13;9.88;;;;;;;23.09;57.75;97919.84;4960110;28;20059;-63
2021/09/18 10:03:22;;;;;;;17.58;12.00;;;;;;;23.80;53.54;97918.47;4960822;28;20034;-61
2021/09/18 10:05:50;;;;;;;18.13;12.00;;;;;;;23.59;54.05;97916.88;4960093;28;20063;-62
2021/09/18 10:08:21;;;;;;;16.95;11.63;;;;;;;23.95;53.34;97914.34;4962216;28;20030;-63
2021/09/18 10:10:47;;;;;;;15.38;10.35;;;;;;;23.92;54.49;97917.28;4960777;28;20039;-61
2021/09/18 10:13:13;;;;;;;14.82;11.13;;;;;;;23.37;54.19;97923.41;4945679;28;20026;-63
2021/09/18 10:15:38;;;;;;;14.80;10.32;;;;;;;23.74;53.56;97924.38;4961082;28;20046;-63
2021/09/18 10:18:05;;;;;;;14.93;9.80;;;;;;;23.45;54.01;97927.97;4962731;28;20030;-63
2021/09/18 10:23:17;;;;;;;15.15;10.27;;;;;;;24.86;49.05;97928.53;4961626;28;20050;-64
2021/09/18 10:25:47;;;;;;;13.70;9.55;;;;;;;26.04;45.79;97916.31;4961552;28;20038;-61
2021/09/18 10:28:21;;;;;;;14.02;8.82;;;;;;;25.95;46.69;97915.47;4961683;28;20027;-61
2021/09/18 10:30:52;;;;;;;9.80;7.13;;;;;;;25.10;47.43;97912.66;4961620;28;20067;-61
2021/09/18 10:33:31;;;;;;;13.18;9.23;;;;;;;23.83;50.13;97918.19;4962499;28;20030;-61
2021/09/18 10:36:18;;;;;;;11.18;7.40;;;;;;;24.30;50.13;97904.69;4958443;28;20039;-63
2021/09/18 10:39:02;;;;;;;14.43;8.75;;;;;;;23.94;50.97;97914.47;4958730;28;20050;-62
2021/09/18 10:41:42;;;;;;;13.57;9.05;;;;;;;23.87;51.70;97914.22;4959855;28;20101;-63
2021/09/18 10:44:08;;;;;;;12.45;9.13;;;;;;;23.81;51.79;97914.81;4962086;28;20035;-63
2021/09/18 10:46:50;;;;;;;14.95;9.35;;;;;;;23.36;53.01;97913.75;4958674;28;20081;-63
2021/09/18 10:49:31;;;;;;;14.65;8.60;;;;;;;22.24;55.59;97905.44;4953076;28;20026;-61
2021/09/18 10:52:24;;;;;;;10.30;7.20;;;;;;;22.91;53.38;97920.53;4957541;28;20093;-65
2021/09/18 10:55:02;;;;;;;12.05;7.43;;;;;;;22.11;57.03;97919.84;4956834;28;20047;-61
2021/09/18 10:57:51;;;;;;;11.07;8.05;;;;;;;22.92;55.37;97913.44;4957581;28;20137;-61
2021/09/18 11:00:19;;;;;;;11.38;6.65;;;;;;;23.25;53.23;97914.75;4945394;28;20034;-59
2021/09/18 11:02:48;;;;;;;10.10;7.47;;;;;;;23.16;52.75;97915.63;4958770;28;20023;-60
2021/09/18 11:05:23;;;;;;;10.80;8.43;;;;;;;24.59;48.68;97912.50;4957422;28;20081;-57
2021/09/18 11:07:56;;;;;;;10.68;5.63;;;;;;;25.07;47.99;97902.34;4958685;28;20126;-59
2021/09/18 11:10:21;;;;;;;9.65;7.05;;;;;;;23.84;51.27;97909.22;4957301;28;20027;-59
2021/09/18 11:13:08;;;;;;;9.07;6.88;;;;;;;23.77;50.96;97908.09;4958518;28;20134;-59
2021/09/18 11:16:16;;;;;;;10.75;7.78;;;;;;;24.36;49.62;97906.75;4957693;28;20061;-60
2021/09/18 11:18:44;;;;;;;11.63;7.93;;;;;;;24.43;48.50;97898.97;4945089;28;20496;-61
2021/09/18 11:21:25;;;;;;;10.80;7.85;;;;;;;25.20;48.06;97901.91;4940413;28;20695;-63
2021/09/18 11:23:55;;;;;;;8.23;5.80;;;;;;;25.27;47.73;97907.47;4959670;28;20054;-62
2021/09/18 11:26:38;;;;;;;10.00;6.30;;;;;;;22.27;53.01;97897.22;4957571;28;20070;-62
2021/09/18 11:29:23;;;;;;;8.68;5.75;;;;;;;23.28;51.49;97901.16;4958007;28;20034;-61
2021/09/18 11:32:19;;;;;;;9.05;6.15;;;;;;;22.77;51.89;97905.03;4957524;28;20038;-60
2021/09/18 11:34:51;;;;;;;8.50;5.93;;;;;;;22.73;51.03;97902.81;4957585;28;20037;-64
2021/09/18 11:37:40;;;;;;;8.57;5.90;;;;;;;23.85;48.06;97892.22;4956840;28;20049;-60